• Join FlightAware (Why Join?)
  • Login
  • US Flag 
10:53AM EST


 

Airport Tracker/Info


-or-


 

Live Flight TrackerFlight Track Log ✈ ASA525 ✈ 18-Aug-2013 ✈ KBUR - KSEA

Flight Track Log - Related Links

Times and Time Zones

All times are in EDT time to prevent confusion due to time zone crossing. See the ASA525 flight status page for this flight to view local times or setup timezone preferences in your user account.

Time Position Orientation Groundspeed Altitude Reporting Facility
EDT Latitude Longitude Course Direction KTS MPH feet Rate Location/Type
02:10PM 34.1667 -118.3833 338° Northwest 193 222 2,900  Level Southern California TRACON
02:11PM 34.1167 -118.4333 220° Southwest 232 267 6,000 2,500 Climbing Southern California TRACON
02:12PM 34.1228 -118.4803 279° West 249 287 7,400 2,654 Climbing Los Angeles Center
02:13PM 34.2000 -118.5297 332° Northwest 263 303 10,600 2,806 Climbing Los Angeles Center
02:14PM 34.2750 -118.5711 335° Northwest 293 337 13,200 2,613 Climbing Los Angeles Center
02:15PM 34.6073 -118.7536 338° Northwest  Level FlightAware Approximate
02:15PM 34.3561 -118.6144 336° Northwest 315 362 16,000  Level Los Angeles Center
02:16PM 34.7178 -118.8089 338° Northwest  Level FlightAware Approximate
02:16PM 34.4450 -118.6631 336° Northwest 350 403 19,000  Level Los Angeles Center
02:17PM 34.5372 -118.7131 336° Northwest 366 421 21,700 2,544 Climbing Los Angeles Center
02:18PM 34.6317 -118.7678 335° Northwest 379 436 24,300 2,400 Climbing Los Angeles Center
02:19PM 34.7586 -118.8161 343° North 405 466 26,700 1,887 Climbing Los Angeles Center
02:20PM 34.8736 -118.8486 347° North 423 487 28,200 1,210 Climbing Los Angeles Center
02:21PM 35.0108 -118.8889 346° North 459 528 29,200 1,210 Climbing Los Angeles Center
02:22PM 35.1383 -118.9269 346° North 472 543 30,700 1,210 Climbing Los Angeles Center
02:23PM 35.2672 -118.9625 347° North 475 547 31,700 629 Climbing Los Angeles Center
02:24PM 35.3961 -119.0017 346° North 477 549 32,000 145 Climbing Los Angeles Center
02:25PM 35.5228 -119.0403 346° North 473 544 32,000 823 Level Los Angeles Center
02:26PM 35.6756 -119.0858 346° North 472 543 33,700 1,440 Climbing Los Angeles Center
02:27PM 35.8072 -119.1258 346° North 483 556 35,000 1,008 Climbing Los Angeles Center
02:28PM 35.9417 -119.1667 346° North 494 568 35,800 574 Climbing Los Angeles Center
02:29PM 36.0192 -119.1889 347° North 496 571 35,900 129 Climbing Oakland Center
02:30PM 36.1528 -119.2267 347° North 494 568 36,000 49 Climbing Oakland Center
02:31PM 36.2861 -119.2689 346° North 495 570 36,000  Level Oakland Center
02:32PM 36.4192 -119.3097 346° North 495 570 36,000  Level Oakland Center
02:33PM 36.5536 -119.3511 346° North 498 573 36,000  Level Oakland Center
02:34PM 36.6875 -119.3919 346° North 498 573 36,000  Level Oakland Center
02:35PM 36.8486 -119.4419 346° North 499 574 36,000  Level Oakland Center
02:36PM 36.9822 -119.4839 346° North 496 571 36,000  Level Oakland Center
02:37PM 37.1167 -119.5261 346° North 498 573 36,000  Level Oakland Center
02:38PM 37.2519 -119.5675 346° North 500 575 36,000  Level Oakland Center
02:39PM 37.3842 -119.6092 346° North 497 572 36,000  Level Oakland Center
02:40PM 37.5181 -119.6519 346° North 496 571 36,000  Level Oakland Center
02:41PM 37.6794 -119.7025 346° North 497 572 36,000  Level Oakland Center
02:42PM 37.8136 -119.7447 346° North 497 572 36,000  Level Oakland Center
02:43PM 37.9458 -119.7864 346° North 492 566 36,000  Level Oakland Center
02:44PM 38.0797 -119.8292 346° North 495 570 36,000  Level Oakland Center
02:45PM 38.2122 -119.8708 346° North 493 567 36,000  Level Oakland Center
02:46PM 38.3439 -119.9131 346° North 490 564 36,000  Level Oakland Center
02:47PM 38.4753 -119.9556 346° North 490 564 36,000  Level Oakland Center
02:48PM 38.6325 -120.0067 346° North 487 560 36,000  Level Oakland Center
02:50PM 38.7622 -120.0483 346° North 485 558 36,000  Level Oakland Center
02:51PM 38.8928 -120.0914 346° North 486 559 36,000  Level Oakland Center
02:52PM 39.0222 -120.1331 346° North 484 557 36,000  Level Oakland Center
02:53PM 39.1508 -120.1758 346° North 480 552 36,000  Level Oakland Center
02:54PM 39.2811 -120.2181 346° North 482 555 36,000  Level Oakland Center
02:55PM 39.4353 -120.2697 345° North 480 552 36,000  Level Oakland Center
02:56PM 39.5622 -120.3125 345° North 475 547 36,000  Level Oakland Center
02:57PM 39.6867 -120.3536 346° North 466 536 36,000  Level Oakland Center
02:58PM 39.8100 -120.3950 346° North 461 531 36,000  Level Oakland Center
02:59PM 39.9311 -120.4353 346° North 453 521 36,000  Level Oakland Center
03:00PM 40.0622 -120.4789 346° North 455 524 36,000  Level Oakland Center
03:01PM 40.1822 -120.5192 346° North 450 518 36,000  Level Oakland Center
03:02PM 40.3028 -120.5606 345° North 449 517 36,000  Level Oakland Center
03:03PM 40.4461 -120.6081 346° North 446 513 36,000  Level Oakland Center
03:04PM 40.5478 -120.6436 345° North 447 514 36,000  Level Seattle Center
03:05PM 40.6878 -120.6911 346° North 443 510 36,000  Level Oakland Center
03:06PM 40.8044 -120.7314 345° North 436 502 36,000  Level Oakland Center
03:07PM 40.9228 -120.7739 345° North 435 501 36,000  Level Seattle Center
03:08PM 41.0375 -120.8150 345° North 430 495 36,000  Level Seattle Center
03:09PM 41.1531 -120.8564 345° North 430 495 36,000  Level Seattle Center
03:10PM 41.2692 -120.8956 346° North 430 495 36,000  Level Seattle Center
03:11PM 41.3828 -120.9350 345° North 425 489 36,000  Level Seattle Center
03:12PM 41.5197 -120.9847 345° North 426 490 36,000 49 Level Seattle Center
03:13PM 41.6342 -121.0253 345° North 428 493 36,100  Climbing Seattle Center
03:14PM 41.7467 -121.0656 345° North 420 483 36,000 -49 Descending Seattle Center
03:15PM 41.8600 -121.1069 345° North 423 487 36,000  Level Seattle Center
03:16PM 41.9733 -121.1461 346° North 425 489 36,000  Level Seattle Center
03:17PM 42.0894 -121.1883 345° North 434 499 36,000  Level Seattle Center
03:18PM 42.2053 -121.2294 345° North 435 501 36,000  Level Seattle Center
03:19PM 42.3442 -121.2800 345° North 436 502 36,000  Level Seattle Center
03:20PM 42.4597 -121.3228 345° North 434 499 36,000  Level Seattle Center
03:21PM 42.5756 -121.3644 345° North 432 497 36,000  Level Seattle Center
03:22PM 42.6914 -121.4081 345° North 434 499 36,000  Level Seattle Center
03:23PM 42.8072 -121.4508 345° North 433 498 36,000  Level Seattle Center
03:24PM 42.9217 -121.4925 345° North 429 494 36,000  Level Seattle Center
03:25PM 43.0361 -121.5364 344° North 429 494 36,000  Level Seattle Center
03:26PM 43.1725 -121.5850 345° North 424 488 36,000  Level Seattle Center
03:27PM 43.2875 -121.6281 345° North 426 490 36,000  Level Seattle Center
03:28PM 43.4011 -121.6717 344° North 426 490 36,000  Level Seattle Center
03:30PM 43.5153 -121.7133 345° North 426 490 36,000  Level Seattle Center
03:31PM 43.6283 -121.7594 344° North 422 486 36,000  Level Seattle Center
03:32PM 43.7425 -121.8025 345° North 424 488 36,000  Level Seattle Center
03:33PM 43.8731 -121.8503 345° North 430 495 36,000  Level Seattle Center
03:34PM 43.9881 -121.8928 345° North 430 495 36,000  Level Seattle Center
03:35PM 44.1036 -121.9358 345° North 431 496 36,000  Level Seattle Center
03:36PM 44.2161 -121.9817 344° North 426 490 36,000  Level Seattle Center
03:37PM 44.3303 -122.0253 345° North 427 491 36,000  Level Seattle Center
03:38PM 44.4447 -122.0692 345° North 427 491 36,000  Level Seattle Center
03:39PM 44.5592 -122.1139 344° North 428 493 36,000  Level Seattle Center
03:40PM 44.6950 -122.1675 344° North 425 489 36,000  Level Seattle Center
03:41PM 44.8089 -122.2131 344° North 428 493 36,000  Level Seattle Center
03:42PM 44.9097 -122.2550 344° North 416 479 36,000  Level Seattle Center
03:43PM 45.0233 -122.2994 345° North 424 488 36,000  Level Seattle Center
03:44PM 45.1378 -122.3453 344° North 429 494 36,000  Level Seattle Center
03:45PM 45.2742 -122.3983 345° North 428 493 36,000  Level Seattle Center
03:46PM 45.3869 -122.4444 344° North 425 489 36,000  Level Seattle Center
03:47PM 45.5000 -122.4897 344° North 425 489 36,000  Level Seattle Center
03:48PM 45.6133 -122.5350 344° North 424 488 36,000  Level Seattle Center
03:49PM 45.7272 -122.5817 344° North 426 490 36,000  Level Seattle Center
03:50PM 45.8411 -122.6131 349° North 422 486 36,000 -244 Level Seattle Center
03:51PM 45.9569 -122.6422 350° North 423 487 35,500 -1,377 Descending Seattle Center
03:52PM 46.0714 -122.6719 350° North 420 483 33,200 -2,780 Descending Seattle Center
03:53PM 46.2097 -122.7003 352° North 421 484 29,800 -2,829 Descending Seattle Center
03:54PM 46.3261 -122.7225 352° North 425 489 27,400 -2,311 Descending Seattle Center
03:55PM 46.4411 -122.7189 North 419 482 25,100 -2,213 Descending Seattle Center
03:56PM 46.5522 -122.7142 North 404 465 22,900 -2,098 Descending Seattle Center
03:57PM 46.6606 -122.7119 North 393 452 20,800 -2,049 Descending Seattle Center
03:58PM 46.7664 -122.7067 North 384 442 18,700 -2,057 Descending Seattle Center
03:59PM 46.8531 -122.6600 20° North 375 432 17,200 -2,114 Descending Seattle Center
04:00PM 46.9358 -122.5667 38° Northeast 376 433 15,000 -1,770 Descending Seattle Center
04:01PM 47.0311 -122.5217 18° North 350 403 13,600 -1,475 Descending Seattle Center
04:02PM 47.1214 -122.4919 13° North 330 380 12,000 -1,594 Descending Seattle Center
04:03PM 47.2236 -122.4753 North 317 365 10,200 -1,180 Descending Seattle Center
04:04PM 47.2986 -122.4639 North 293 337 9,600 -983 Descending Seattle Center
04:05PM 47.3742 -122.4553 North 268 308 8,300 -1,031 Descending Seattle Center
04:06PM 47.4500 -122.4564 359° North 245 282 7,400 -885 Descending Seattle Center
04:07PM 47.5144 -122.4569 360° North 247 284 6,500 -1,131 Descending Seattle Center
04:08PM 47.5842 -122.4514 North 228 262 5,100 -1,328 Descending Seattle Center
04:09PM 47.6078 -122.3858 62° Northeast 219 252 3,800 -1,190 Descending Seattle Center
04:10PM 47.5811 -122.3250 123° Southeast 169 194 2,800 -1,033 Descending Seattle Center
04:11PM 47.5331 -122.3189 175° South 158 182 1,700 -934 Descending Seattle Center
04:12PM 47.4881 -122.3172 179° South 157 181 900 -545 Descending Seattle Center
04:13PM 47.4389 -122.3186 181° South 141 162 400 -366 Descending Seattle Center